createdAt,value
2022-09-26T00:01:27.472Z,9.93
2022-09-26T00:03:58.169Z,10.01
2022-09-26T00:06:26.187Z,9.48
2022-09-26T00:08:54.308Z,9.84
2022-09-26T00:11:24.637Z,9.95
2022-09-26T00:13:54.183Z,9.37
2022-09-26T00:16:21.970Z,9.93
2022-09-26T00:18:50.818Z,9.87
2022-09-26T00:21:18.565Z,9.31
2022-09-26T00:23:46.538Z,9.90
2022-09-26T00:26:15.499Z,9.87
2022-09-26T00:28:42.822Z,9.86
2022-09-26T00:31:15.114Z,9.85
2022-09-26T00:33:43.353Z,9.86
2022-09-26T00:36:11.033Z,9.65
2022-09-26T00:38:38.148Z,9.34
2022-09-26T00:41:06.817Z,9.48
2022-09-26T00:43:55.663Z,9.95
2022-09-26T00:46:34.869Z,9.98
2022-09-26T00:49:22.918Z,9.95
2022-09-26T00:52:00.057Z,9.93
2022-09-26T00:54:28.763Z,10.00
2022-09-26T00:57:00.135Z,9.86
2022-09-26T00:59:43.759Z,9.60
2022-09-26T01:02:11.961Z,9.66
2022-09-26T01:04:41.639Z,9.78
2022-09-26T01:07:17.364Z,9.82
2022-09-26T01:09:45.149Z,9.80
2022-09-26T01:12:12.953Z,9.82
2022-09-26T01:14:41.872Z,9.65
2022-09-26T01:17:11.116Z,9.71
2022-09-26T01:19:47.440Z,9.89
2022-09-26T01:22:48.817Z,9.97
2022-09-26T01:25:35.140Z,9.97
2022-09-26T01:28:35.827Z,9.57
2022-09-26T01:31:21.607Z,10.03
2022-09-26T01:34:11.579Z,9.33
2022-09-26T01:36:55.546Z,9.95
2022-09-26T01:39:46.742Z,9.89
2022-09-26T01:42:22.654Z,9.85
2022-09-26T01:44:53.720Z,9.67
2022-09-26T01:47:57.013Z,9.97
2022-09-26T01:50:35.106Z,9.93
2022-09-26T01:53:06.535Z,9.94
2022-09-26T01:55:41.199Z,9.91
2022-09-26T01:58:17.331Z,9.95
2022-09-26T02:00:49.115Z,9.67
2022-09-26T02:03:27.498Z,10.04
2022-09-26T02:06:04.269Z,10.01
2022-09-26T02:08:38.139Z,9.95
2022-09-26T02:11:10.959Z,9.99
2022-09-26T02:13:47.591Z,9.87
2022-09-26T02:16:40.701Z,10.13
2022-09-26T02:19:22.222Z,10.02
2022-09-26T02:21:49.432Z,9.93
2022-09-26T02:24:18.218Z,10.04
2022-09-26T02:26:45.382Z,10.04
2022-09-26T02:29:14.279Z,9.94
2022-09-26T02:31:51.725Z,9.53
2022-09-26T02:34:19.434Z,9.84
2022-09-26T02:36:46.587Z,9.96
2022-09-26T02:39:14.060Z,9.94
2022-09-26T02:42:21.859Z,10.01
2022-09-26T02:45:26.644Z,10.00
2022-09-26T02:48:18.238Z,9.99
2022-09-26T02:51:12.924Z,9.99
2022-09-26T02:53:45.969Z,9.92
2022-09-26T02:56:43.261Z,9.83
2022-09-26T02:59:21.787Z,9.85
2022-09-26T03:02:11.978Z,9.72
2022-09-26T03:04:55.197Z,9.85
2022-09-26T03:07:48.361Z,9.80
2022-09-26T03:10:17.032Z,9.87
2022-09-26T03:12:45.439Z,9.85
2022-09-26T03:15:14.490Z,9.82
2022-09-26T03:17:47.622Z,9.74
2022-09-26T03:20:21.706Z,9.80
2022-09-26T03:22:51.543Z,9.28
2022-09-26T03:25:23.033Z,9.94
2022-09-26T03:27:58.754Z,9.90
2022-09-26T03:30:25.867Z,9.32
2022-09-26T03:33:13.941Z,9.70
2022-09-26T03:35:41.066Z,9.81
2022-09-26T03:38:12.386Z,9.78
2022-09-26T03:40:46.744Z,9.57
2022-09-26T03:43:32.489Z,9.81
2022-09-26T03:46:05.517Z,9.81
2022-09-26T03:48:34.321Z,9.80
2022-09-26T03:51:08.012Z,9.86
2022-09-26T03:53:37.533Z,9.87
2022-09-26T03:56:10.413Z,9.56
2022-09-26T03:58:37.895Z,9.97
2022-09-26T04:01:23.628Z,9.95
2022-09-26T04:03:51.474Z,9.83
2022-09-26T04:06:20.427Z,10.08
2022-09-26T04:08:50.276Z,10.03
2022-09-26T04:11:23.139Z,10.00
2022-09-26T04:13:53.349Z,9.73
2022-09-26T04:16:24.385Z,9.93
2022-09-26T04:19:04.993Z,9.91
2022-09-26T04:21:34.508Z,9.89
2022-09-26T04:24:02.799Z,9.88
2022-09-26T04:26:29.850Z,9.91
2022-09-26T04:28:58.121Z,9.65
2022-09-26T04:31:45.293Z,9.29
2022-09-26T04:34:16.581Z,9.80
2022-09-26T04:36:43.784Z,10.06
2022-09-26T04:39:11.678Z,10.00
2022-09-26T04:41:39.539Z,9.91
2022-09-26T04:44:06.720Z,9.97
2022-09-26T04:46:34.043Z,9.94
2022-09-26T04:49:02.056Z,9.84
2022-09-26T04:51:33.101Z,9.98
2022-09-26T04:54:00.594Z,9.89
2022-09-26T04:56:29.959Z,10.05
2022-09-26T04:58:58.623Z,9.94
2022-09-26T05:01:31.124Z,9.94
2022-09-26T05:04:11.045Z,10.07
2022-09-26T05:06:39.341Z,9.99
2022-09-26T05:09:10.029Z,10.05
2022-09-26T05:11:47.833Z,10.13
2022-09-26T05:14:15.191Z,9.93
2022-09-26T05:16:42.463Z,9.90
2022-09-26T05:19:13.470Z,10.22
2022-09-26T05:21:51.734Z,10.23
2022-09-26T05:24:37.630Z,10.01
2022-09-26T05:27:07.537Z,10.17
2022-09-26T05:29:35.120Z,10.23
2022-09-26T05:32:05.043Z,10.20
2022-09-26T05:34:36.877Z,10.18
2022-09-26T05:37:05.374Z,10.14
2022-09-26T05:39:51.547Z,10.27
2022-09-26T05:42:19.744Z,10.21
2022-09-26T05:44:47.270Z,9.76
2022-09-26T05:47:14.373Z,10.18
2022-09-26T05:49:41.589Z,10.04
2022-09-26T05:52:12.284Z,10.25
2022-09-26T05:54:39.253Z,10.35
2022-09-26T05:57:26.225Z,10.14
2022-09-26T05:59:55.260Z,10.28
2022-09-26T06:02:25.548Z,10.11
2022-09-26T06:05:04.132Z,10.18
2022-09-26T06:07:37.164Z,10.13
2022-09-26T06:10:07.510Z,10.00
2022-09-26T06:12:47.581Z,10.39
2022-09-26T06:15:17.511Z,10.42
2022-09-26T06:17:44.904Z,10.44
2022-09-26T06:20:13.224Z,9.87
2022-09-26T06:22:43.966Z,10.41
2022-09-26T06:25:12.502Z,10.46
2022-09-26T06:27:40.303Z,10.37
2022-09-26T06:30:11.776Z,10.46
2022-09-26T06:32:39.304Z,10.51
2022-09-26T06:35:33.324Z,10.58
2022-09-26T06:38:10.003Z,10.35
2022-09-26T06:40:37.427Z,10.02
2022-09-26T06:43:05.565Z,10.67
2022-09-26T06:45:51.173Z,10.66
2022-09-26T06:48:28.944Z,10.63
2022-09-26T06:51:01.616Z,10.74
2022-09-26T06:53:31.517Z,10.67
2022-09-26T06:55:59.946Z,10.76
2022-09-26T06:58:28.084Z,10.81
2022-09-26T07:01:09.655Z,10.79
2022-09-26T07:03:45.628Z,10.90
2022-09-26T07:06:31.806Z,10.97
2022-09-26T07:09:05.533Z,10.99
2022-09-26T07:12:12.901Z,11.15
2022-09-26T07:14:34.250Z,10.95
2022-09-26T07:17:13.944Z,10.69
2022-09-26T07:20:01.258Z,10.95
2022-09-26T07:23:05.994Z,10.92
2022-09-26T07:25:33.712Z,10.64
2022-09-26T07:28:02.354Z,11.00
2022-09-26T07:30:40.403Z,11.12
2022-09-26T07:33:13.837Z,10.96
2022-09-26T07:35:48.344Z,11.11
2022-09-26T07:38:16.085Z,10.96
2022-09-26T07:40:44.046Z,11.17
2022-09-26T07:43:42.805Z,11.02
2022-09-26T07:46:16.800Z,10.56
2022-09-26T07:49:06.207Z,11.10
2022-09-26T07:51:56.062Z,11.24
2022-09-26T07:54:28.320Z,11.24
2022-09-26T07:57:14.474Z,11.34
2022-09-26T07:59:59.838Z,11.10
2022-09-26T08:02:48.851Z,10.90
2022-09-26T08:05:21.233Z,11.21
2022-09-26T08:07:49.651Z,11.46
2022-09-26T08:10:36.531Z,11.54
2022-09-26T08:13:35.822Z,11.47
2022-09-26T08:16:08.521Z,11.09
2022-09-26T08:18:40.705Z,11.71
2022-09-26T08:21:08.238Z,11.76
2022-09-26T08:23:35.734Z,11.83
2022-09-26T08:26:41.870Z,11.65
2022-09-26T08:29:18.728Z,11.80
2022-09-26T08:31:49.177Z,11.82
2022-09-26T08:34:17.672Z,11.99
2022-09-26T08:36:54.328Z,12.06
2022-09-26T08:39:38.151Z,12.03
2022-09-26T08:42:36.465Z,12.15
2022-09-26T08:46:10.243Z,12.25
2022-09-26T08:48:58.683Z,12.08
2022-09-26T08:51:39.876Z,12.15
2022-09-26T08:54:22.037Z,11.99
2022-09-26T08:56:57.985Z,12.25
2022-09-26T08:59:34.658Z,12.23
2022-09-26T09:02:05.233Z,12.36
2022-09-26T09:05:03.238Z,12.23
2022-09-26T09:07:31.720Z,11.11
2022-09-26T09:10:03.851Z,12.17
2022-09-26T09:13:25.917Z,11.67
2022-09-26T09:16:06.075Z,12.07
2022-09-26T09:19:09.530Z,11.30
2022-09-26T09:22:17.922Z,11.92
2022-09-26T09:25:03.564Z,11.77
2022-09-26T09:27:54.219Z,11.86
2022-09-26T09:30:36.121Z,11.76
2022-09-26T09:33:39.704Z,11.81
2022-09-26T09:36:50.892Z,11.77
2022-09-26T09:39:44.858Z,11.23
2022-09-26T09:42:37.110Z,11.87
2022-09-26T09:45:17.456Z,11.86
2022-09-26T09:47:44.913Z,11.45
2022-09-26T09:50:22.098Z,11.98
2022-09-26T09:52:51.886Z,12.16
2022-09-26T09:55:33.002Z,12.05
2022-09-26T09:58:18.542Z,12.21
2022-09-26T10:00:56.572Z,11.72
2022-09-26T10:03:47.926Z,12.16
2022-09-26T10:06:46.579Z,12.30
2022-09-26T10:09:35.898Z,12.35
2022-09-26T10:12:29.374Z,11.64
2022-09-26T10:15:20.437Z,12.06
2022-09-26T10:18:25.778Z,12.08
2022-09-26T10:21:16.393Z,12.04
2022-09-26T10:23:47.285Z,11.13
2022-09-26T10:26:39.732Z,11.98
2022-09-26T10:29:33.954Z,12.04
2022-09-26T10:32:02.408Z,11.69
2022-09-26T10:34:32.909Z,11.68
2022-09-26T10:37:24.333Z,12.00
2022-09-26T10:40:17.607Z,12.10
2022-09-26T10:42:47.298Z,11.89
2022-09-26T10:45:18.193Z,11.27
2022-09-26T10:48:06.262Z,11.87
2022-09-26T10:51:18.793Z,11.85
2022-09-26T10:54:06.007Z,11.80
2022-09-26T10:56:39.289Z,11.77
2022-09-26T10:59:10.129Z,11.20
2022-09-26T11:01:43.367Z,11.77
2022-09-26T11:04:15.532Z,11.77
2022-09-26T11:07:05.738Z,11.60
2022-09-26T11:09:47.075Z,11.09
2022-09-26T11:12:57.814Z,11.78
2022-09-26T11:15:25.372Z,11.30
2022-09-26T11:17:53.792Z,11.66
2022-09-26T11:20:37.146Z,11.45
2022-09-26T11:23:13.077Z,11.70
2022-09-26T11:26:43.248Z,11.94
2022-09-26T11:29:22.066Z,11.64
2022-09-26T11:32:24.021Z,11.19
2022-09-26T11:34:54.591Z,12.03
2022-09-26T11:37:39.394Z,12.20
2022-09-26T11:40:28.150Z,12.33
2022-09-26T11:43:08.789Z,12.35
2022-09-26T11:45:55.933Z,12.44
2022-09-26T11:48:44.252Z,12.53
2022-09-26T11:51:59.153Z,12.07
2022-09-26T11:55:01.106Z,12.70
2022-09-26T11:58:03.572Z,12.68
2022-09-26T12:00:55.984Z,12.17
2022-09-26T12:04:00.714Z,12.58
2022-09-26T12:06:56.177Z,12.28
2022-09-26T12:09:39.335Z,12.52
2022-09-26T12:12:15.353Z,12.50
2022-09-26T12:14:52.840Z,12.52
2022-09-26T12:17:41.072Z,12.47
2022-09-26T12:20:17.011Z,12.13
2022-09-26T12:22:49.886Z,12.44
2022-09-26T12:25:41.699Z,12.45
2022-09-26T12:28:33.684Z,12.45
2022-09-26T12:31:19.663Z,12.50
2022-09-26T12:34:18.897Z,12.04
2022-09-26T12:37:09.430Z,11.96
2022-09-26T12:40:06.812Z,12.49
2022-09-26T12:42:42.589Z,12.37
2022-09-26T12:45:28.428Z,12.02
2022-09-26T12:47:55.674Z,12.44
2022-09-26T12:50:41.321Z,11.88
2022-09-26T12:53:14.146Z,12.46
2022-09-26T12:56:24.073Z,12.48
2022-09-26T12:59:12.887Z,12.54
2022-09-26T13:01:50.297Z,12.50
2022-09-26T13:04:26.431Z,12.48
2022-09-26T13:07:18.885Z,12.32
2022-09-26T13:10:29.019Z,12.38
2022-09-26T13:13:30.275Z,12.09
2022-09-26T13:16:28.225Z,12.43
2022-09-26T13:19:00.505Z,12.13
2022-09-26T13:21:45.094Z,12.25
2022-09-26T13:24:19.749Z,11.96
2022-09-26T13:27:27.042Z,11.83
2022-09-26T13:30:23.560Z,12.32
2022-09-26T13:32:57.495Z,11.40
2022-09-26T13:35:27.929Z,12.20
2022-09-26T13:38:20.252Z,12.33
2022-09-26T13:40:58.949Z,12.08
2022-09-26T13:43:31.072Z,12.28
2022-09-26T13:46:06.642Z,12.25
2022-09-26T13:48:50.212Z,11.79
2022-09-26T13:51:30.816Z,12.22
2022-09-26T13:54:17.014Z,12.18
2022-09-26T13:56:49.787Z,12.05
2022-09-26T13:59:18.280Z,11.08
2022-09-26T14:02:16.544Z,12.09
2022-09-26T14:04:45.603Z,11.97
2022-09-26T14:07:31.038Z,11.95
2022-09-26T14:10:01.872Z,11.13
2022-09-26T14:13:08.462Z,11.79
2022-09-26T14:15:48.411Z,11.22
2022-09-26T14:18:27.299Z,11.14
2022-09-26T14:21:19.515Z,11.64
2022-09-26T14:23:49.538Z,11.12
2022-09-26T14:26:28.189Z,11.56
2022-09-26T14:28:57.370Z,10.94
2022-09-26T14:31:24.265Z,10.73
2022-09-26T14:34:17.473Z,11.34
2022-09-26T14:36:46.633Z,10.91
2022-09-26T14:39:38.737Z,10.61
2022-09-26T14:42:17.114Z,11.14
2022-09-26T14:45:06.115Z,11.10
2022-09-26T14:47:50.519Z,10.99
2022-09-26T14:50:20.798Z,10.78
2022-09-26T14:52:58.063Z,10.50
2022-09-26T14:55:27.137Z,10.28
2022-09-26T14:58:37.377Z,10.79
2022-09-26T15:01:46.089Z,10.76
2022-09-26T15:04:24.074Z,10.87
2022-09-26T15:07:01.746Z,10.36
2022-09-26T15:09:43.691Z,10.71
2022-09-26T15:12:23.095Z,10.65
2022-09-26T15:15:09.819Z,10.67
2022-09-26T15:17:40.990Z,10.65
2022-09-26T15:20:13.502Z,10.64
2022-09-26T15:22:42.686Z,10.61
2022-09-26T15:25:19.692Z,10.52
2022-09-26T15:27:48.985Z,10.77
2022-09-26T15:30:24.646Z,10.58
2022-09-26T15:32:57.535Z,10.30
2022-09-26T15:35:26.986Z,10.56
2022-09-26T15:38:00.206Z,10.20
2022-09-26T15:40:30.343Z,10.54
2022-09-26T15:43:09.978Z,10.53
2022-09-26T15:45:50.224Z,10.51
2022-09-26T15:48:20.121Z,10.47
2022-09-26T15:50:53.672Z,10.26
2022-09-26T15:53:31.967Z,10.23
2022-09-26T15:56:10.241Z,10.46
2022-09-26T15:59:01.092Z,10.48
2022-09-26T16:01:30.794Z,10.34
2022-09-26T16:04:13.498Z,10.39
2022-09-26T16:06:52.788Z,10.22
2022-09-26T16:09:43.673Z,10.06
2022-09-26T16:12:22.437Z,10.30
2022-09-26T16:14:52.537Z,10.25
2022-09-26T16:17:28.099Z,10.45
2022-09-26T16:20:02.861Z,10.32
2022-09-26T16:22:36.950Z,9.91
2022-09-26T16:25:19.597Z,10.55
2022-09-26T16:27:59.809Z,10.46
2022-09-26T16:30:33.747Z,10.50
2022-09-26T16:33:03.890Z,10.51
2022-09-26T16:35:33.624Z,10.34
2022-09-26T16:38:23.194Z,10.49
2022-09-26T16:40:52.540Z,10.56
2022-09-26T16:43:30.035Z,10.57
2022-09-26T16:46:09.310Z,10.60
2022-09-26T16:48:41.322Z,10.59
2022-09-26T16:51:17.541Z,10.54
2022-09-26T16:54:00.658Z,10.28
2022-09-26T16:56:28.654Z,10.24
2022-09-26T16:58:59.435Z,9.89
2022-09-26T17:01:46.452Z,10.26
2022-09-26T17:04:21.593Z,10.33
2022-09-26T17:06:48.849Z,10.27
2022-09-26T17:09:18.564Z,10.31
2022-09-26T17:11:48.438Z,10.28
2022-09-26T17:14:22.156Z,10.04
2022-09-26T17:16:55.461Z,10.14
2022-09-26T17:19:24.481Z,9.64
2022-09-26T17:21:53.080Z,10.21
2022-09-26T17:24:26.320Z,10.43
2022-09-26T17:27:05.846Z,9.84
2022-09-26T17:29:36.603Z,9.94
2022-09-26T17:32:09.634Z,10.21
2022-09-26T17:34:37.754Z,10.28
2022-09-26T17:37:05.351Z,10.30
2022-09-26T17:39:32.539Z,10.11
2022-09-26T17:42:00.233Z,10.30
2022-09-26T17:44:29.767Z,10.34
2022-09-26T17:46:57.791Z,10.30
2022-09-26T17:49:35.311Z,10.18
2022-09-26T17:52:05.297Z,10.32
2022-09-26T17:54:40.778Z,9.62
2022-09-26T17:57:14.630Z,10.30
2022-09-26T17:59:42.955Z,10.07
2022-09-26T18:02:29.317Z,10.33
2022-09-26T18:04:59.377Z,9.72
2022-09-26T18:07:36.216Z,10.22
2022-09-26T18:10:08.339Z,10.21
2022-09-26T18:12:35.627Z,10.20
2022-09-26T18:15:04.771Z,10.03
2022-09-26T18:17:32.395Z,10.07
2022-09-26T18:19:59.691Z,10.05
2022-09-26T18:22:33.189Z,9.95
2022-09-26T18:25:08.598Z,9.66
2022-09-26T18:27:41.880Z,9.62
2022-09-26T18:30:14.079Z,9.70
2022-09-26T18:32:44.291Z,9.58
2022-09-26T18:35:17.103Z,9.74
2022-09-26T18:37:44.809Z,9.62
2022-09-26T18:40:17.086Z,9.49
2022-09-26T18:42:45.787Z,8.96
2022-09-26T18:45:33.298Z,9.78
2022-09-26T18:48:02.452Z,9.73
2022-09-26T18:50:37.190Z,9.56
2022-09-26T18:53:15.763Z,9.65
2022-09-26T18:56:01.644Z,9.71
2022-09-26T18:58:29.769Z,9.76
2022-09-26T19:01:01.759Z,9.72
2022-09-26T19:03:35.038Z,9.67
2022-09-26T19:06:41.040Z,9.51
2022-09-26T19:09:15.070Z,8.94
2022-09-26T19:11:42.679Z,9.57
2022-09-26T19:14:24.709Z,9.76
2022-09-26T19:16:52.885Z,9.56
2022-09-26T19:19:20.773Z,9.80
2022-09-26T19:21:47.816Z,9.80
2022-09-26T19:24:21.305Z,9.56
2022-09-26T19:27:04.731Z,9.63
2022-09-26T19:29:45.984Z,9.80
2022-09-26T19:32:21.176Z,8.76
2022-09-26T19:35:01.149Z,9.77
2022-09-26T19:37:28.396Z,9.13
2022-09-26T19:39:57.881Z,9.47
2022-09-26T19:42:26.428Z,9.74
2022-09-26T19:44:53.518Z,9.70
2022-09-26T19:47:23.736Z,9.52
2022-09-26T19:49:53.001Z,9.74
2022-09-26T19:52:20.920Z,9.38
2022-09-26T19:54:48.864Z,9.72
2022-09-26T19:57:21.112Z,9.80
2022-09-26T19:59:49.839Z,9.75
2022-09-26T20:02:22.834Z,9.19
2022-09-26T20:04:51.248Z,9.80
2022-09-26T20:07:19.705Z,9.10
2022-09-26T20:09:47.322Z,9.67
2022-09-26T20:12:14.948Z,9.16
2022-09-26T20:14:41.965Z,9.57
2022-09-26T20:17:21.194Z,9.65
2022-09-26T20:19:48.781Z,9.69
2022-09-26T20:22:19.506Z,9.68
2022-09-26T20:24:49.433Z,9.61
2022-09-26T20:27:26.599Z,8.93
2022-09-26T20:30:12.682Z,9.39
2022-09-26T20:32:42.638Z,9.64
2022-09-26T20:35:16.021Z,9.54
2022-09-26T20:37:44.037Z,9.56
2022-09-26T20:40:21.344Z,8.50
2022-09-26T20:42:51.798Z,9.09
2022-09-26T20:45:25.580Z,9.04
2022-09-26T20:47:52.623Z,9.27
2022-09-26T20:50:20.883Z,9.58
2022-09-26T20:52:48.280Z,9.28
2022-09-26T20:55:18.260Z,8.97
2022-09-26T20:57:46.162Z,9.43
2022-09-26T21:00:19.486Z,9.46
2022-09-26T21:02:51.476Z,8.23
2022-09-26T21:05:22.934Z,9.38
2022-09-26T21:07:50.916Z,9.34
2022-09-26T21:10:29.025Z,8.96
2022-09-26T21:12:57.027Z,9.34
2022-09-26T21:15:25.998Z,9.21
2022-09-26T21:17:54.345Z,9.22
2022-09-26T21:20:26.273Z,8.97
2022-09-26T21:23:20.551Z,8.60
2022-09-26T21:25:47.653Z,9.05
2022-09-26T21:28:26.761Z,8.84
2022-09-26T21:31:06.321Z,9.26
2022-09-26T21:33:33.641Z,9.14
2022-09-26T21:36:01.024Z,9.24
2022-09-26T21:38:28.208Z,8.73
2022-09-26T21:40:59.795Z,9.35
2022-09-26T21:43:35.519Z,9.40
2022-09-26T21:46:02.962Z,9.13
2022-09-26T21:48:30.150Z,9.38
2022-09-26T21:50:58.620Z,9.24
2022-09-26T21:53:57.760Z,9.49
2022-09-26T21:56:29.972Z,9.41
2022-09-26T21:58:57.709Z,9.36
2022-09-26T22:01:25.173Z,9.32
2022-09-26T22:03:53.547Z,9.11
2022-09-26T22:06:20.693Z,8.87
2022-09-26T22:08:47.788Z,9.16
2022-09-26T22:11:15.022Z,9.11
2022-09-26T22:13:42.168Z,8.67
2022-09-26T22:16:13.311Z,9.13
2022-09-26T22:18:41.581Z,9.00
2022-09-26T22:21:10.359Z,8.35
2022-09-26T22:23:38.285Z,8.94
2022-09-26T22:26:06.213Z,8.96
2022-09-26T22:28:33.580Z,9.01
2022-09-26T22:31:05.290Z,9.01
2022-09-26T22:33:33.382Z,8.91
2022-09-26T22:36:01.154Z,8.95
2022-09-26T22:38:28.331Z,8.22
2022-09-26T22:41:04.172Z,8.66
2022-09-26T22:43:32.835Z,8.73
2022-09-26T22:46:11.253Z,8.35
2022-09-26T22:48:41.442Z,8.83
2022-09-26T22:51:10.482Z,8.74
2022-09-26T22:53:39.320Z,8.82
2022-09-26T22:56:09.194Z,8.93
2022-09-26T22:58:44.414Z,8.73
2022-09-26T23:01:14.334Z,8.95
2022-09-26T23:03:41.862Z,8.92
2022-09-26T23:06:09.427Z,8.91
2022-09-26T23:08:37.160Z,8.84
2022-09-26T23:11:05.698Z,8.90
2022-09-26T23:13:35.659Z,8.76
2022-09-26T23:16:05.604Z,8.81
2022-09-26T23:18:34.812Z,8.92
2022-09-26T23:21:18.056Z,8.63
2022-09-26T23:23:47.289Z,8.96
2022-09-26T23:26:24.408Z,9.04
2022-09-26T23:28:52.913Z,8.97
2022-09-26T23:31:21.174Z,8.87
2022-09-26T23:33:48.415Z,8.89
2022-09-26T23:36:15.905Z,8.86
2022-09-26T23:38:43.210Z,8.77
2022-09-26T23:41:11.937Z,8.41
2022-09-26T23:43:39.614Z,8.76
2022-09-26T23:46:07.587Z,8.69
2022-09-26T23:48:35.414Z,8.81
2022-09-26T23:51:02.804Z,8.16
2022-09-26T23:53:30.379Z,8.36
2022-09-26T23:56:06.168Z,8.55
2022-09-26T23:58:33.494Z,8.52
